Time;durP1;ratioP1;P1;durP2;ratioP2;P2;SDS_P1;SDS_P2;PMS_P1;PMS_P2;Temp;Humidity;BMP_temperature;BMP_pressure;BME280_temperature;BME280_humidity;BME280_pressure;Samples;Min_cycle;Max_cycle;Signal;HPM_P1;HPM_P2
2022/03/29 00:00:54;;;;;;;44.40;20.80;;;;;;;5.00;100.00;100381.47;7396039;19;21240;-51
2022/03/29 00:03:24;;;;;;;49.23;22.53;;;;;;;5.20;100.00;100385.94;7401075;19;20395;-47
2022/03/29 00:05:54;;;;;;;47.40;22.00;;;;;;;5.07;100.00;100398.03;7394430;19;20386;-50
2022/03/29 00:08:24;;;;;;;45.03;20.90;;;;;;;4.91;100.00;100396.25;7398175;19;20431;-49
2022/03/29 00:10:56;;;;;;;43.50;20.40;;;;;;;4.89;100.00;100386.72;7395516;19;20410;-51
2022/03/29 00:13:26;;;;;;;39.30;22.00;;;;;;;4.91;100.00;100383.47;7399334;19;20892;-50
2022/03/29 00:15:55;;;;;;;43.57;21.23;;;;;;;4.88;100.00;100385.84;7394544;19;20392;-51
2022/03/29 00:18:25;;;;;;;51.70;23.80;;;;;;;4.90;100.00;100380.81;7397551;19;20939;-50
2022/03/29 00:20:54;;;;;;;43.60;21.33;;;;;;;4.98;100.00;100380.47;7394850;19;20392;-48
2022/03/29 00:23:24;;;;;;;57.77;22.30;;;;;;;4.93;100.00;100379.31;7400108;19;20383;-52
2022/03/29 00:25:56;;;;;;;40.80;20.93;;;;;;;4.97;100.00;100376.16;7390698;19;20371;-49
2022/03/29 00:28:25;;;;;;;42.17;20.80;;;;;;;4.98;100.00;100377.91;7394688;19;20422;-55
2022/03/29 00:30:55;;;;;;;48.10;21.90;;;;;;;4.91;100.00;100372.38;7388816;19;20706;-47
2022/03/29 00:33:25;;;;;;;51.83;22.10;;;;;;;4.87;100.00;100373.84;7399507;19;20392;-48
2022/03/29 00:35:55;;;;;;;54.50;24.17;;;;;;;4.86;100.00;100374.63;7389573;19;21055;-54
2022/03/29 00:38:24;;;;;;;45.80;20.80;;;;;;;4.79;100.00;100359.75;7394153;19;20490;-49
2022/03/29 00:40:56;;;;;;;47.63;22.00;;;;;;;4.80;100.00;100358.94;7387985;19;20393;-54
2022/03/29 00:43:26;;;;;;;47.57;24.00;;;;;;;4.79;100.00;100359.75;7395508;19;20384;-52
2022/03/29 00:45:56;;;;;;;46.93;23.50;;;;;;;4.82;100.00;100360.78;7387023;19;20721;-50
2022/03/29 00:48:26;;;;;;;48.67;22.40;;;;;;;4.86;100.00;100349.06;7393913;19;20438;-51
2022/03/29 00:50:56;;;;;;;47.30;22.57;;;;;;;4.82;100.00;100349.72;7389493;19;20431;-56
2022/03/29 00:53:26;;;;;;;48.13;21.57;;;;;;;4.78;100.00;100340.97;7390693;19;20890;-55
2022/03/29 00:55:59;;;;;;;53.23;24.03;;;;;;;4.88;100.00;100339.84;7389854;19;20502;-48
2022/03/29 00:58:29;;;;;;;51.30;22.37;;;;;;;4.85;100.00;100337.97;7389617;19;20415;-53
2022/03/29 01:01:01;;;;;;;49.73;23.20;;;;;;;4.84;100.00;100332.78;7386508;19;20398;-54
2022/03/29 01:03:31;;;;;;;49.10;18.77;;;;;;;4.80;100.00;100325.72;7390875;19;20402;-49
2022/03/29 01:06:01;;;;;;;45.93;21.23;;;;;;;4.79;100.00;100329.06;7384687;19;20442;-52
2022/03/29 01:08:31;;;;;;;46.50;22.30;;;;;;;4.87;100.00;100320.16;7390232;19;20430;-54
2022/03/29 01:11:03;;;;;;;43.80;21.20;;;;;;;5.00;100.00;100320.09;7385854;19;20392;-49
2022/03/29 01:13:45;;;;;;;44.07;22.37;;;;;;;4.95;100.00;100318.03;7390303;19;20418;-57
2022/03/29 01:18:58;;;;;;;38.17;16.30;;;;;;;4.88;100.00;100319.38;7397544;19;20423;-45
2022/03/29 01:21:33;;;;;;;40.47;19.40;;;;;;;4.96;100.00;100327.47;7389202;19;20415;-47
2022/03/29 01:24:05;;;;;;;46.97;20.43;;;;;;;5.07;100.00;100330.69;7394424;19;20380;-47
2022/03/29 01:26:35;;;;;;;46.63;20.00;;;;;;;5.09;100.00;100335.06;7389355;19;20467;-55
2022/03/29 01:29:06;;;;;;;45.37;19.17;;;;;;;5.31;100.00;100335.41;7393231;19;20421;-55
2022/03/29 01:31:36;;;;;;;34.30;16.80;;;;;;;5.19;100.00;100344.16;7386873;19;20915;-48
2022/03/29 01:34:07;;;;;;;41.10;19.33;;;;;;;5.15;100.00;100347.31;7393367;19;20394;-49
2022/03/29 01:36:36;;;;;;;42.90;18.53;;;;;;;5.00;100.00;100347.31;7389716;19;20430;-53
2022/03/29 01:39:08;;;;;;;41.30;20.70;;;;;;;4.99;100.00;100338.75;7392516;19;20411;-48
2022/03/29 01:41:38;;;;;;;35.77;18.60;;;;;;;5.03;100.00;100339.81;7388313;19;20408;-54
2022/03/29 01:44:08;;;;;;;45.27;17.73;;;;;;;5.06;100.00;100339.13;7393153;19;20384;-51
2022/03/29 01:46:38;;;;;;;39.53;19.20;;;;;;;5.02;100.00;100344.88;7386362;19;20415;-48
2022/03/29 01:49:08;;;;;;;36.30;17.30;;;;;;;5.03;100.00;100350.03;7392218;19;20404;-48
2022/03/29 01:51:37;;;;;;;34.80;16.87;;;;;;;5.07;100.00;100357.09;7387912;19;20865;-53
2022/03/29 01:54:09;;;;;;;29.90;14.53;;;;;;;5.18;100.00;100360.28;7392951;19;20395;-48
2022/03/29 01:56:39;;;;;;;37.00;15.90;;;;;;;5.16;100.00;100361.88;7387545;19;20419;-50
2022/03/29 01:59:11;;;;;;;31.13;14.90;;;;;;;5.31;100.00;100366.09;7391808;19;20412;-54
2022/03/29 02:01:42;;;;;;;36.20;15.93;;;;;;;5.33;100.00;100357.72;7388036;19;20411;-52
2022/03/29 02:04:12;;;;;;;32.33;15.53;;;;;;;5.25;100.00;100377.75;7393362;19;20386;-50
2022/03/29 02:06:42;;;;;;;36.80;16.17;;;;;;;5.20;100.00;100374.06;7387961;19;20423;-48
2022/03/29 02:09:14;;;;;;;40.13;16.70;;;;;;;5.21;100.00;100357.91;7390783;19;20803;-53
2022/03/29 02:11:44;;;;;;;30.07;15.63;;;;;;;5.31;100.00;100355.84;7387861;19;20399;-52
2022/03/29 02:14:17;;;;;;;40.83;16.90;;;;;;;5.24;100.00;100357.22;7391665;19;20458;-50
2022/03/29 02:16:46;;;;;;;43.00;17.70;;;;;;;5.25;100.00;100349.63;7386727;19;20426;-51
2022/03/29 02:19:16;;;;;;;35.17;16.07;;;;;;;5.35;100.00;100337.34;7391159;19;20438;-47
2022/03/29 02:21:45;;;;;;;36.37;16.50;;;;;;;5.70;100.00;100327.28;7385966;19;20415;-50
2022/03/29 02:24:17;;;;;;;42.37;17.40;;;;;;;5.47;100.00;100338.03;7392845;19;20394;-52
2022/03/29 02:26:46;;;;;;;32.50;15.97;;;;;;;5.33;100.00;100344.91;7387150;19;20759;-49
2022/03/29 02:29:16;;;;;;;30.13;15.33;;;;;;;5.14;100.00;100337.91;7390657;19;20408;-52
2022/03/29 02:31:45;;;;;;;28.47;14.20;;;;;;;5.10;100.00;100341.06;7387711;19;20420;-52
2022/03/29 02:34:15;;;;;;;35.63;15.43;;;;;;;5.06;100.00;100331.44;7391864;19;20384;-48
2022/03/29 02:36:44;;;;;;;33.90;15.13;;;;;;;4.92;100.00;100336.66;7387764;19;20443;-51
2022/03/29 02:39:16;;;;;;;35.33;15.03;;;;;;;5.05;100.00;100327.13;7390181;19;20926;-48
2022/03/29 02:41:46;;;;;;;33.73;13.47;;;;;;;5.06;100.00;100331.44;7388136;19;20416;-52
2022/03/29 02:44:16;;;;;;;33.67;13.83;;;;;;;4.95;100.00;100335.94;7399891;19;20384;-48
2022/03/29 02:46:46;;;;;;;23.63;11.83;;;;;;;4.90;100.00;100338.25;7391140;19;20411;-45
2022/03/29 02:49:16;;;;;;;29.07;13.10;;;;;;;5.05;100.00;100337.34;7397098;19;20926;-51
2022/03/29 02:51:47;;;;;;;23.60;12.30;;;;;;;4.95;100.00;100352.19;7392759;19;20495;-49
2022/03/29 02:54:19;;;;;;;29.60;13.63;;;;;;;4.96;100.00;100348.81;7398912;19;20390;-51
2022/03/29 02:56:50;;;;;;;26.87;13.10;;;;;;;4.90;100.00;100347.56;7394185;19;20411;-50
2022/03/29 02:59:19;;;;;;;29.20;12.63;;;;;;;4.87;100.00;100348.28;7396466;19;20507;-48
2022/03/29 03:01:49;;;;;;;29.73;12.37;;;;;;;4.71;100.00;100336.28;7393580;19;20648;-48
2022/03/29 03:04:19;;;;;;;27.57;12.03;;;;;;;4.59;100.00;100323.66;7403674;19;20418;-52
2022/03/29 03:06:48;;;;;;;24.60;9.60;;;;;;;4.64;100.00;100332.50;7393952;19;21044;-49
2022/03/29 03:09:21;;;;;;;21.77;9.23;;;;;;;4.65;100.00;100326.59;7395712;19;20964;-52
2022/03/29 03:11:50;;;;;;;21.83;10.20;;;;;;;4.84;100.00;100312.31;7393241;19;20481;-52
2022/03/29 03:14:20;;;;;;;30.27;10.80;;;;;;;4.57;100.00;100326.13;7398082;19;20380;-52
2022/03/29 03:16:49;;;;;;;25.50;8.60;;;;;;;4.57;100.00;100325.25;7393356;19;20406;-50
2022/03/29 03:19:38;;;;;;;28.00;9.13;;;;;;;4.46;100.00;100320.38;7399719;19;20431;-52
2022/03/29 03:22:07;;;;;;;23.37;8.20;;;;;;;4.40;100.00;100319.13;7391902;19;20830;-51
2022/03/29 03:24:39;;;;;;;29.97;9.07;;;;;;;4.30;100.00;100317.69;7398254;19;20388;-52
2022/03/29 03:27:09;;;;;;;29.30;7.20;;;;;;;4.26;100.00;100310.66;7392009;19;20415;-54
2022/03/29 03:29:38;;;;;;;34.10;7.47;;;;;;;4.33;100.00;100303.44;7395792;19;20403;-48
2022/03/29 03:32:09;;;;;;;26.33;6.87;;;;;;;4.19;100.00;100310.28;7391626;19;20419;-49
2022/03/29 03:34:39;;;;;;;22.90;7.63;;;;;;;4.03;100.00;100302.47;7397403;19;20394;-51
2022/03/29 03:37:09;;;;;;;24.57;6.23;;;;;;;3.99;100.00;100308.22;7394197;19;20434;-46
2022/03/29 03:39:41;;;;;;;26.17;5.90;;;;;;;3.91;100.00;100298.38;7395354;19;20412;-49
2022/03/29 03:42:12;;;;;;;24.37;6.40;;;;;;;4.12;100.00;100291.94;7391875;19;20418;-49
2022/03/29 03:44:42;;;;;;;35.37;6.83;;;;;;;3.89;100.00;100289.75;7397675;19;20913;-48
2022/03/29 03:47:11;;;;;;;28.07;7.20;;;;;;;3.95;100.00;100288.38;7389763;19;20766;-48
2022/03/29 03:49:41;;;;;;;22.67;6.77;;;;;;;3.98;100.00;100288.53;7395203;19;20426;-51
2022/03/29 03:52:11;;;;;;;23.13;6.60;;;;;;;3.88;100.00;100293.09;7390403;19;20402;-50
2022/03/29 03:54:44;;;;;;;24.77;7.00;;;;;;;4.01;100.00;100291.31;7395361;19;20380;-49
2022/03/29 03:57:13;;;;;;;22.97;7.00;;;;;;;4.03;100.00;100289.72;7392102;19;20745;-48
2022/03/29 03:59:44;;;;;;;32.90;6.70;;;;;;;3.98;100.00;100288.53;7394633;19;20458;-56
2022/03/29 04:02:14;;;;;;;22.63;6.50;;;;;;;3.89;100.00;100287.19;7391132;19;20402;-49
2022/03/29 04:04:44;;;;;;;22.07;6.10;;;;;;;3.81;100.00;100277.31;7396936;19;20384;-47
2022/03/29 04:07:13;;;;;;;27.00;7.00;;;;;;;3.48;100.00;100280.41;7390374;19;20952;-50
2022/03/29 04:09:45;;;;;;;27.27;6.97;;;;;;;3.62;100.00;100273.63;7394649;19;20735;-52
2022/03/29 04:12:15;;;;;;;29.80;7.67;;;;;;;3.42;100.00;100270.72;7391198;19;20411;-49
2022/03/29 04:14:44;;;;;;;24.13;6.87;;;;;;;3.19;100.00;100271.81;7396277;19;20732;-49
2022/03/29 04:17:14;;;;;;;34.30;6.80;;;;;;;3.16;100.00;100266.50;7390739;19;20411;-52
2022/03/29 04:19:44;;;;;;;46.00;7.10;;;;;;;3.26;100.00;100261.22;7394348;19;20398;-51
2022/03/29 04:22:13;;;;;;;30.40;7.07;;;;;;;3.31;100.00;100249.63;7386091;19;20441;-51
2022/03/29 04:24:45;;;;;;;25.40;6.23;;;;;;;3.24;100.00;100250.91;7395358;19;20367;-48
2022/03/29 04:27:15;;;;;;;32.57;7.30;;;;;;;3.38;100.00;100239.03;7391167;19;20449;-50
2022/03/29 04:29:44;;;;;;;39.43;6.10;;;;;;;3.12;100.00;100252.69;7393915;19;20408;-48
2022/03/29 04:32:14;;;;;;;19.30;5.90;;;;;;;2.98;100.00;100241.63;7391324;19;20419;-46
2022/03/29 04:34:44;;;;;;;21.23;6.03;;;;;;;3.04;100.00;100236.91;7395495;19;20388;-50
2022/03/29 04:37:13;;;;;;;23.87;5.70;;;;;;;3.14;100.00;100228.19;7390880;19;20426;-46
2022/03/29 04:39:45;;;;;;;19.30;5.10;;;;;;;3.12;100.00;100236.53;7395655;19;20434;-51
2022/03/29 04:42:18;;;;;;;30.80;5.90;;;;;;;3.12;100.00;100233.97;7389834;19;20920;-53
2022/03/29 04:44:47;;;;;;;31.63;4.77;;;;;;;3.05;100.00;100223.38;7396596;19;20726;-47
2022/03/29 04:47:17;;;;;;;38.60;6.03;;;;;;;3.03;100.00;100224.06;7387643;19;20417;-50
2022/03/29 04:49:46;;;;;;;35.50;6.43;;;;;;;3.09;100.00;100220.22;7392948;19;20402;-52
2022/03/29 04:52:16;;;;;;;21.80;4.40;;;;;;;3.05;100.00;100217.38;7387432;19;20411;-48
2022/03/29 04:54:48;;;;;;;30.73;6.27;;;;;;;3.02;100.00;100212.97;7394739;19;20388;-53
2022/03/29 04:57:17;;;;;;;33.40;4.90;;;;;;;2.80;100.00;100224.38;7391066;19;20936;-50
2022/03/29 04:59:47;;;;;;;29.37;5.30;;;;;;;2.53;100.00;100228.53;7392848;19;20415;-51
2022/03/29 05:02:16;;;;;;;22.30;4.33;;;;;;;2.81;100.00;100218.47;7388754;19;20411;-50
2022/03/29 05:04:46;;;;;;;24.50;4.90;;;;;;;2.74;100.00;100218.88;7393459;19;20743;-51
2022/03/29 05:07:16;;;;;;;33.17;5.23;;;;;;;2.66;100.00;100218.38;7387718;19;20972;-50
2022/03/29 05:09:48;;;;;;;51.70;5.03;;;;;;;2.56;100.00;100218.53;7394956;19;20422;-46
2022/03/29 05:12:17;;;;;;;30.90;5.13;;;;;;;2.24;100.00;100212.19;7386744;19;20402;-50
2022/03/29 05:14:47;;;;;;;22.93;4.57;;;;;;;2.12;100.00;100203.00;7394096;19;20387;-47
2022/03/29 05:17:16;;;;;;;23.83;4.53;;;;;;;2.23;100.00;100196.06;7384224;19;20402;-48
2022/03/29 05:19:46;;;;;;;23.33;5.37;;;;;;;2.34;100.00;100188.22;7392507;19;20408;-48
2022/03/29 05:22:16;;;;;;;32.60;5.30;;;;;;;2.49;100.00;100179.06;7388732;19;20445;-48
2022/03/29 05:24:48;;;;;;;23.17;4.90;;;;;;;2.22;100.00;100188.31;7398230;19;20378;-55
2022/03/29 05:27:18;;;;;;;25.60;4.57;;;;;;;2.06;100.00;100179.69;7388473;19;20427;-49
2022/03/29 05:29:47;;;;;;;18.93;4.70;;;;;;;2.19;100.00;100175.41;7392243;19;20418;-56
2022/03/29 05:32:18;;;;;;;33.13;5.43;;;;;;;2.07;100.00;100178.88;7388506;19;20740;-51
2022/03/29 05:34:48;;;;;;;27.20;5.00;;;;;;;2.05;100.00;100179.56;7393082;19;20716;-53
2022/03/29 05:37:18;;;;;;;32.13;4.90;;;;;;;2.02;100.00;100175.16;7385870;19;20442;-54
2022/03/29 05:39:50;;;;;;;24.07;4.40;;;;;;;2.20;100.00;100170.38;7391337;19;20470;-50
2022/03/29 05:42:19;;;;;;;36.77;5.00;;;;;;;2.46;100.00;100157.63;7386903;19;20437;-48
2022/03/29 05:44:49;;;;;;;25.03;6.40;;;;;;;2.31;100.00;100173.66;7392899;19;20391;-53
2022/03/29 05:50:07;;;;;;;36.63;5.03;;;;;;;2.35;100.00;100177.28;7391090;19;20368;-48
2022/03/29 05:52:37;;;;;;;26.00;6.53;;;;;;;2.43;100.00;100173.56;7386726;19;20398;-51
2022/03/29 05:55:10;;;;;;;26.70;4.40;;;;;;;2.91;100.00;100171.53;7393574;19;20392;-48
2022/03/29 05:57:40;;;;;;;59.77;19.47;;;;;;;3.33;100.00;100173.25;7387215;19;20500;-55
2022/03/29 06:00:11;;;;;;;34.90;6.97;;;;;;;3.05;100.00;100192.78;7393266;19;20391;-53
2022/03/29 06:02:41;;;;;;;18.73;4.20;;;;;;;2.73;100.00;100214.56;7386074;19;20419;-52
2022/03/29 06:05:11;;;;;;;29.77;4.40;;;;;;;2.50;100.00;100220.69;7393416;19;20906;-52
2022/03/29 06:07:41;;;;;;;26.23;4.37;;;;;;;2.38;100.00;100215.69;7383479;19;20397;-49
2022/03/29 06:10:13;;;;;;;30.17;9.33;;;;;;;2.50;100.00;100215.59;7392942;19;20379;-53
2022/03/29 06:12:46;;;;;;;37.77;9.40;;;;;;;2.66;100.00;100214.94;7388117;19;20398;-51
2022/03/29 06:15:17;;;;;;;36.30;4.83;;;;;;;2.48;100.00;100219.72;7392656;19;20776;-52
2022/03/29 06:17:46;;;;;;;35.97;10.80;;;;;;;2.53;100.00;100221.78;7389897;19;20406;-50
2022/03/29 06:20:16;;;;;;;27.83;5.00;;;;;;;2.45;100.00;100227.16;7399750;19;20387;-55
2022/03/29 06:22:46;;;;;;;28.63;4.43;;;;;;;2.48;100.00;100232.44;7393924;19;20419;-51
2022/03/29 06:25:18;;;;;;;17.47;4.03;;;;;;;2.56;100.00;100227.06;7400204;19;20359;-52
2022/03/29 06:27:49;;;;;;;37.87;11.37;;;;;;;2.60;100.00;100217.09;7392373;19;20414;-54
2022/03/29 06:30:19;;;;;;;30.97;6.73;;;;;;;2.61;100.00;100223.97;7403191;19;20381;-51
2022/03/29 06:32:49;;;;;;;24.30;5.27;;;;;;;2.69;100.00;100227.88;7393664;19;20408;-47
2022/03/29 06:35:21;;;;;;;29.20;6.47;;;;;;;2.81;100.00;100238.84;7399737;19;20451;-54
2022/03/29 06:37:51;;;;;;;43.80;10.83;;;;;;;2.84;100.00;100239.03;7390252;19;20465;-47
2022/03/29 06:40:24;;;;;;;15.93;4.30;;;;;;;2.96;100.00;100243.16;7399870;19;20363;-54
2022/03/29 06:42:55;;;;;;;39.90;13.57;;;;;;;3.01;100.00;100251.09;7392545;19;20477;-54
2022/03/29 06:45:24;;;;;;;19.10;3.33;;;;;;;3.01;100.00;100262.19;7399101;19;20873;-54
2022/03/29 06:47:53;;;;;;;23.30;3.73;;;;;;;3.10;100.00;100260.25;7392474;19;20406;-49
2022/03/29 06:50:23;;;;;;;26.80;8.90;;;;;;;3.13;100.00;100266.31;7399441;19;20375;-54
2022/03/29 06:52:53;;;;;;;22.63;6.20;;;;;;;3.13;100.00;100266.31;7392182;19;20490;-52
2022/03/29 06:55:30;;;;;;;25.57;5.10;;;;;;;3.21;100.00;100276.22;7399427;19;20921;-50
2022/03/29 06:58:00;;;;;;;23.63;4.17;;;;;;;3.28;100.00;100282.59;7389510;19;20422;-51
2022/03/29 07:00:30;;;;;;;17.90;3.23;;;;;;;3.28;100.00;100280.03;7398978;19;20944;-50
2022/03/29 07:02:59;;;;;;;24.73;4.70;;;;;;;3.38;100.00;100295.16;7389893;19;20498;-50
2022/03/29 07:05:29;;;;;;;37.63;4.50;;;;;;;3.49;100.00;100292.41;7402590;19;20393;-48
2022/03/29 07:07:59;;;;;;;29.73;6.43;;;;;;;3.62;100.00;100294.94;7390356;19;20486;-51
2022/03/29 07:13:13;;;;;;;26.97;7.93;;;;;;;3.77;100.00;100314.53;7401055;19;20435;-52
2022/03/29 07:15:42;;;;;;;16.17;4.13;;;;;;;3.84;100.00;100334.53;7388835;19;20386;-54
2022/03/29 07:18:12;;;;;;;16.27;2.70;;;;;;;3.84;100.00;100331.97;7395526;19;20740;-49
2022/03/29 07:20:41;;;;;;;32.30;7.77;;;;;;;3.89;100.00;100330.59;7396778;19;20380;-54
2022/03/29 07:23:11;;;;;;;32.67;7.43;;;;;;;4.08;100.00;100321.53;7398157;19;20394;-50
2022/03/29 07:25:43;;;;;;;20.90;3.30;;;;;;;4.06;100.00;100343.53;7398137;19;20391;-54
2022/03/29 07:28:13;;;;;;;19.43;4.00;;;;;;;3.98;100.00;100345.59;7397885;19;20438;-48
2022/03/29 07:30:43;;;;;;;20.90;7.03;;;;;;;4.01;100.00;100353.44;7391344;19;20753;-51
2022/03/29 07:33:15;;;;;;;17.33;4.20;;;;;;;4.04;100.00;100357.84;7397676;19;20760;-48
2022/03/29 07:35:44;;;;;;;18.63;3.30;;;;;;;4.15;100.00;100364.50;7393434;19;20383;-53
2022/03/29 07:38:14;;;;;;;37.87;13.07;;;;;;;4.37;100.00;100350.50;7395084;19;20433;-52
2022/03/29 07:40:46;;;;;;;17.40;3.40;;;;;;;4.49;100.00;100365.69;7391931;19;20470;-47
2022/03/29 07:43:16;;;;;;;20.67;4.17;;;;;;;4.41;100.00;100377.13;7397382;19;20924;-50
2022/03/29 07:45:51;;;;;;;16.17;2.57;;;;;;;4.49;100.00;100388.69;7391879;19;20950;-46
2022/03/29 07:48:22;;;;;;;14.63;3.57;;;;;;;4.63;100.00;100383.50;7395893;19;20394;-50
2022/03/29 07:51:13;;;;;;;17.93;2.67;;;;;;;4.71;100.00;100388.28;7392135;19;20418;-46
2022/03/29 07:53:43;;;;;;;23.37;5.50;;;;;;;4.57;100.00;100399.38;7397833;19;20383;-49
2022/03/29 07:56:15;;;;;;;16.90;2.97;;;;;;;4.57;100.00;100414.69;7391622;19;20407;-46
2022/03/29 07:58:45;;;;;;;18.80;2.50;;;;;;;4.70;100.00;100422.31;7394274;19;20749;-52
2022/03/29 08:01:14;;;;;;;17.60;2.67;;;;;;;4.57;100.00;100423.22;7390522;19;20949;-49
2022/03/29 08:03:44;;;;;;;12.47;3.23;;;;;;;4.70;100.00;100414.66;7397295;19;20387;-51
2022/03/29 08:06:14;;;;;;;12.63;2.77;;;;;;;4.68;100.00;100426.44;7392054;19;20744;-48
2022/03/29 08:08:43;;;;;;;18.93;2.70;;;;;;;4.71;100.00;100429.19;7394298;19;20426;-54
2022/03/29 08:11:15;;;;;;;16.43;3.20;;;;;;;4.57;100.00;100442.81;7390525;19;20419;-52
2022/03/29 08:13:46;;;;;;;18.90;2.93;;;;;;;4.56;100.00;100451.28;7396731;19;20725;-48
2022/03/29 08:16:16;;;;;;;14.80;2.40;;;;;;;4.62;100.00;100449.09;7390211;19;20415;-49
2022/03/29 08:18:45;;;;;;;13.40;3.03;;;;;;;4.72;100.00;100440.31;7393902;19;20515;-50
2022/03/29 08:23:59;;;;;;;14.13;3.40;;;;;;;4.90;100.00;100460.06;7396887;19;20377;-51
2022/03/29 08:26:31;;;;;;;13.97;2.63;;;;;;;5.07;100.00;100459.41;7389666;19;20393;-48
2022/03/29 08:29:00;;;;;;;7.60;2.40;;;;;;;5.04;100.00;100484.81;7394438;19;20423;-51
2022/03/29 08:31:30;;;;;;;7.87;2.30;;;;;;;5.02;100.00;100490.63;7389365;19;20920;-52
2022/03/29 08:34:00;;;;;;;12.77;2.37;;;;;;;5.05;100.00;100486.56;7396038;19;20388;-47
2022/03/29 08:36:29;;;;;;;11.43;3.10;;;;;;;5.18;100.00;100488.16;7390671;19;20431;-51
2022/03/29 08:38:58;;;;;;;19.20;4.30;;;;;;;5.23;100.00;100501.25;7393653;19;20399;-48
2022/03/29 08:41:34;;;;;;;14.57;3.03;;;;;;;5.20;100.00;100501.97;7389248;19;20402;-55
2022/03/29 08:44:04;;;;;;;15.33;3.63;;;;;;;5.17;100.00;100495.78;7396080;19;20458;-47
2022/03/29 08:46:36;;;;;;;18.37;5.23;;;;;;;5.10;100.00;100504.75;7389492;19;20485;-48
2022/03/29 08:49:05;;;;;;;9.80;2.20;;;;;;;5.05;100.00;100511.25;7394301;19;20788;-51
2022/03/29 08:51:35;;;;;;;21.10;5.93;;;;;;;5.17;100.00;100506.00;7388843;19;20412;-52
2022/03/29 08:54:05;;;;;;;16.30;2.60;;;;;;;5.40;100.00;100499.69;7395669;19;20447;-49
2022/03/29 08:56:38;;;;;;;18.97;2.13;;;;;;;5.51;100.00;100508.88;7388346;19;20415;-51
2022/03/29 08:59:08;;;;;;;12.90;2.20;;;;;;;5.47;100.00;100526.50;7392907;19;20415;-49
2022/03/29 09:01:37;;;;;;;12.93;2.30;;;;;;;5.51;100.00;100525.91;7387734;19;20941;-49
2022/03/29 09:04:12;;;;;;;11.27;2.00;;;;;;;5.54;100.00;100528.66;7395605;19;20375;-45
2022/03/29 09:06:58;;;;;;;6.43;2.07;;;;;;;5.66;100.00;100529.34;7389462;19;20410;-51
2022/03/29 09:09:30;;;;;;;19.50;3.53;;;;;;;5.86;100.00;100521.94;7393334;19;20499;-49
2022/03/29 09:12:12;;;;;;;9.93;2.17;;;;;;;5.93;100.00;100535.97;7390798;19;20436;-47
2022/03/29 09:14:55;;;;;;;8.63;1.60;;;;;;;6.08;100.00;100528.31;7394964;19;20390;-49
2022/03/29 09:17:33;;;;;;;30.23;11.47;;;;;;;6.33;100.00;100532.22;7384269;19;20420;-48
2022/03/29 09:20:04;;;;;;;104.03;37.23;;;;;;;6.85;100.00;100517.91;7395552;19;20391;-49
2022/03/29 09:22:43;;;;;;;51.97;21.53;;;;;;;6.64;100.00;100538.16;7388088;19;20515;-51
2022/03/29 09:25:15;;;;;;;21.50;8.83;;;;;;;6.18;100.00;100560.44;7396689;19;20376;-50
2022/03/29 09:27:56;;;;;;;15.50;4.07;;;;;;;6.02;100.00;100562.16;7388832;19;20463;-48
2022/03/29 09:30:27;;;;;;;13.43;3.63;;;;;;;6.03;100.00;100565.56;7394760;19;20451;-49
2022/03/29 09:33:00;;;;;;;26.97;8.07;;;;;;;6.22;100.00;100552.16;7387583;19;20412;-51
2022/03/29 09:35:31;;;;;;;31.97;12.10;;;;;;;6.46;100.00;100536.38;7394012;19;20384;-52
2022/03/29 09:38:01;;;;;;;19.13;2.80;;;;;;;6.64;100.00;100548.41;7388069;19;20424;-50
2022/03/29 09:40:39;;;;;;;14.93;3.30;;;;;;;6.47;100.00;100571.44;7394057;19;20389;-47
2022/03/29 09:43:12;;;;;;;25.43;7.70;;;;;;;6.45;100.00;100565.34;7392174;19;20418;-51
2022/03/29 09:45:44;;;;;;;15.50;3.57;;;;;;;6.67;100.00;100569.09;7386719;19;20395;-53
2022/03/29 09:48:28;;;;;;;10.43;1.53;;;;;;;6.70;100.00;100582.97;7392436;19;20408;-49
2022/03/29 09:50:59;;;;;;;5.63;1.30;;;;;;;6.73;100.00;100607.91;7384304;19;20391;-48
2022/03/29 09:53:38;;;;;;;12.90;2.33;;;;;;;6.53;100.00;100620.50;7392855;19;20404;-49
2022/03/29 09:56:10;;;;;;;14.93;2.23;;;;;;;6.73;100.00;100625.84;7388663;19;20516;-49
2022/03/29 09:59:04;;;;;;;9.50;1.43;;;;;;;6.88;100.00;100624.09;7391069;19;20451;-49
2022/03/29 10:01:34;;;;;;;15.57;3.87;;;;;;;7.10;100.00;100612.47;7385877;19;20424;-46
2022/03/29 10:04:05;;;;;;;6.17;1.70;;;;;;;7.10;100.00;100620.16;7393673;19;20408;-50
2022/03/29 10:06:34;;;;;;;18.47;4.80;;;;;;;6.85;100.00;100608.56;7387079;19;20411;-47
2022/03/29 10:11:46;;;;;;;10.47;3.33;;;;;;;6.94;100.00;100612.41;7385986;19;20409;-47
2022/03/29 10:14:21;;;;;;;11.13;2.17;;;;;;;6.80;100.00;100622.81;7393295;19;20395;-47
2022/03/29 10:16:52;;;;;;;12.63;3.33;;;;;;;6.76;100.00;100638.81;7385989;19;20446;-46
2022/03/29 10:19:23;;;;;;;7.50;1.83;;;;;;;7.12;100.00;100639.06;7390762;19;20512;-44
2022/03/29 10:21:53;;;;;;;10.17;2.10;;;;;;;7.34;100.00;100642.78;7386398;19;20409;-49
2022/03/29 10:24:23;;;;;;;11.27;1.53;;;;;;;7.53;100.00;100644.63;7393047;19;20390;-46
2022/03/29 10:26:55;;;;;;;13.93;2.90;;;;;;;7.67;100.00;100639.34;7387397;19;20407;-48
2022/03/29 10:29:28;;;;;;;8.47;1.30;;;;;;;7.23;100.00;100625.94;7390135;19;20434;-52
2022/03/29 10:32:00;;;;;;;12.53;1.63;;;;;;;7.49;100.00;100617.03;7387375;19;20418;-47
2022/03/29 10:34:31;;;;;;;10.07;2.20;;;;;;;7.46;100.00;100618.56;7392518;19;20455;-51
2022/03/29 10:37:07;;;;;;;18.47;2.50;;;;;;;7.34;100.00;100624.81;7386010;19;20981;-51
2022/03/29 10:39:53;;;;;;;10.83;2.40;;;;;;;7.45;100.00;100621.94;7393468;19;20421;-47
2022/03/29 10:42:40;;;;;;;6.50;2.13;;;;;;;7.39;100.00;100631.06;7383867;19;20490;-50
2022/03/29 10:45:16;;;;;;;7.70;1.63;;;;;;;7.48;100.00;100635.81;7392450;19;20381;-47
2022/03/29 10:48:13;;;;;;;13.53;2.50;;;;;;;7.75;100.00;100616.63;7385408;19;20425;-47
2022/03/29 10:50:57;;;;;;;5.73;1.67;;;;;;;7.79;100.00;100618.56;7385150;19;20395;-49
2022/03/29 10:53:29;;;;;;;12.03;3.10;;;;;;;7.82;100.00;100619.59;7391751;19;20454;-47
2022/03/29 10:56:19;;;;;;;10.13;1.77;;;;;;;7.82;100.00;100608.41;7384922;19;20937;-50
2022/03/29 10:59:13;;;;;;;4.90;1.30;;;;;;;7.83;100.00;100610.19;7389662;19;20422;-49
2022/03/29 11:01:45;;;;;;;10.67;2.17;;;;;;;7.83;100.00;100635.88;7384669;19;20426;-46
2022/03/29 11:04:21;;;;;;;8.20;2.30;;;;;;;8.21;100.00;100625.75;7397637;19;20399;-48
2022/03/29 11:07:10;;;;;;;5.50;1.30;;;;;;;8.26;100.00;100621.72;7395277;19;20447;-50
2022/03/29 11:09:41;;;;;;;7.90;2.60;;;;;;;7.94;100.00;100633.84;7395163;19;20444;-46
2022/03/29 11:12:37;;;;;;;7.53;1.63;;;;;;;8.06;100.00;100637.03;7393381;19;20423;-48
2022/03/29 11:15:49;;;;;;;12.50;2.00;;;;;;;7.84;100.00;100622.22;7398949;19;20387;-45
2022/03/29 11:18:45;;;;;;;14.17;1.70;;;;;;;8.02;100.00;100616.25;7399851;19;20552;-47
2022/03/29 11:21:40;;;;;;;6.60;1.20;;;;;;;7.86;100.00;100610.34;7392838;19;20490;-50
2022/03/29 11:24:13;;;;;;;9.60;1.97;;;;;;;8.31;100.00;100621.94;7398904;19;20390;-51
2022/03/29 11:26:59;;;;;;;10.40;1.90;;;;;;;8.30;100.00;100633.91;7392491;19;20430;-46
2022/03/29 11:29:28;;;;;;;6.60;1.43;;;;;;;8.26;100.00;100641.41;7399065;19;20944;-49
2022/03/29 11:32:01;;;;;;;5.87;1.33;;;;;;;8.02;100.00;100637.69;7393105;19;20756;-49
2022/03/29 11:34:41;;;;;;;8.90;1.73;;;;;;;8.08;100.00;100626.81;7398324;19;20463;-51
2022/03/29 11:37:11;;;;;;;19.00;7.13;;;;;;;8.37;100.00;100615.41;7393311;19;20421;-47
2022/03/29 11:39:40;;;;;;;10.47;1.63;;;;;;;8.17;100.00;100611.88;7394427;19;20983;-48
2022/03/29 11:42:10;;;;;;;10.30;2.37;;;;;;;8.18;100.00;100612.75;7391728;19;20418;-55
2022/03/29 11:44:41;;;;;;;15.70;2.80;;;;;;;8.33;100.00;100599.75;7397895;19;20387;-51
2022/03/29 11:47:11;;;;;;;7.77;1.50;;;;;;;8.21;100.00;100618.91;7390400;19;20419;-49
2022/03/29 11:49:45;;;;;;;14.30;2.37;;;;;;;8.46;100.00;100604.69;7394464;19;20415;-54